Time;durP1;ratioP1;P1;durP2;ratioP2;P2;SDS_P1;SDS_P2;PMS_P1;PMS_P2;Temp;Humidity;BMP_temperature;BMP_pressure;BME280_temperature;BME280_humidity;BME280_pressure;Samples;Min_cycle;Max_cycle;Signal;HPM_P1;HPM_P2
2021/12/08 00:01:22;;;;;;;27.42;10.90;;;;;;;-2.72;100.00;98236.97;4501770;31;20480;-71
2021/12/08 00:03:51;;;;;;;37.20;14.57;;;;;;;-2.68;100.00;98234.19;4501626;31;20092;-71
2021/12/08 00:06:18;;;;;;;34.50;13.60;;;;;;;-2.73;100.00;98231.00;4501831;31;20130;-71
2021/12/08 00:08:59;;;;;;;34.20;11.85;;;;;;;-2.73;100.00;98238.69;4501722;31;20145;-71
2021/12/08 00:14:13;;;;;;;34.92;13.10;;;;;;;-2.75;100.00;98243.06;4501906;31;20480;-71
2021/12/08 00:16:41;;;;;;;47.53;15.70;;;;;;;-2.77;100.00;98233.75;4501946;31;20096;-71
2021/12/08 00:19:08;;;;;;;41.42;14.50;;;;;;;-2.77;100.00;98224.34;4501481;31;20453;-71
2021/12/08 00:21:35;;;;;;;31.12;12.37;;;;;;;-2.75;100.00;98231.97;4499500;31;20096;-71
2021/12/08 00:24:03;;;;;;;36.75;13.90;;;;;;;-2.68;100.00;98251.28;4485900;31;20101;-71
2021/12/08 00:26:30;;;;;;;27.98;10.20;;;;;;;-2.75;100.00;98250.75;4485935;31;20092;-71
2021/12/08 00:28:57;;;;;;;32.80;11.60;;;;;;;-2.79;100.00;98244.06;4484413;32;20096;-71
2021/12/08 00:31:25;;;;;;;38.55;16.33;;;;;;;-2.84;100.00;98247.75;4485813;31;20104;-71
2021/12/08 00:33:52;;;;;;;32.28;12.77;;;;;;;-2.83;100.00;98252.81;4485797;31;20123;-71
2021/12/08 00:36:26;;;;;;;35.72;15.00;;;;;;;-2.90;100.00;98249.66;4485867;31;20160;-71
2021/12/08 00:38:53;;;;;;;38.35;13.90;;;;;;;-2.82;100.00;98248.53;4485871;31;20080;-72
2021/12/08 00:41:20;;;;;;;36.20;11.82;;;;;;;-2.84;100.00;98246.03;4485586;31;20096;-71
2021/12/08 00:43:48;;;;;;;35.65;13.50;;;;;;;-2.83;100.00;98255.37;4485794;31;20123;-71
2021/12/08 00:46:16;;;;;;;30.65;12.32;;;;;;;-2.79;100.00;98246.63;4485697;32;20122;-71
2021/12/08 00:48:48;;;;;;;35.47;13.77;;;;;;;-2.79;100.00;98253.50;4485748;31;20110;-71
2021/12/08 00:51:17;;;;;;;36.85;11.95;;;;;;;-2.72;100.00;98255.75;4485554;31;20169;-71
2021/12/08 00:53:45;;;;;;;32.30;12.88;;;;;;;-2.68;100.00;98257.28;4485685;31;20089;-71
2021/12/08 00:56:13;;;;;;;35.75;12.18;;;;;;;-2.63;100.00;98256.25;4484830;31;20205;-71
2021/12/08 00:58:41;;;;;;;40.05;13.57;;;;;;;-2.68;100.00;98259.00;4485950;31;20119;-71
2021/12/08 01:01:28;;;;;;;31.83;11.60;;;;;;;-2.66;100.00;98257.22;4485425;31;20079;-71
2021/12/08 01:03:56;;;;;;;31.80;12.20;;;;;;;-2.67;100.00;98261.47;4485779;31;20426;-72
2021/12/08 01:06:23;;;;;;;34.78;12.48;;;;;;;-2.62;100.00;98255.34;4485632;31;20156;-72
2021/12/08 01:08:50;;;;;;;35.78;13.55;;;;;;;-2.54;100.00;98255.84;4485548;31;20123;-71
2021/12/08 01:11:20;;;;;;;31.85;11.48;;;;;;;-2.59;100.00;98257.75;4485467;31;20424;-71
2021/12/08 01:13:48;;;;;;;35.13;13.60;;;;;;;-2.49;100.00;98256.47;4485928;31;20108;-71
2021/12/08 01:16:15;;;;;;;35.63;12.82;;;;;;;-2.40;100.00;98250.09;4485567;31;20115;-71
2021/12/08 01:18:43;;;;;;;29.15;13.32;;;;;;;-2.39;100.00;98241.47;4485670;31;20115;-71
2021/12/08 01:21:11;;;;;;;37.47;13.43;;;;;;;-2.43;100.00;98251.06;4485090;31;20114;-72
2021/12/08 01:23:38;;;;;;;36.17;13.90;;;;;;;-2.44;100.00;98234.00;4500887;31;20486;-71
2021/12/08 01:26:08;;;;;;;38.72;14.43;;;;;;;-2.48;100.00;98237.62;4501150;31;20124;-72
2021/12/08 01:28:35;;;;;;;29.60;11.20;;;;;;;-2.45;100.00;98229.78;4495330;31;20095;-71
2021/12/08 01:31:04;;;;;;;35.55;11.20;;;;;;;-2.46;100.00;98232.41;4485182;31;20111;-71
2021/12/08 01:33:34;;;;;;;35.53;13.45;;;;;;;-2.57;100.00;98228.59;4485255;31;20096;-71
2021/12/08 01:36:03;;;;;;;36.58;13.18;;;;;;;-2.55;100.00;98225.97;4485373;31;20159;-72
2021/12/08 01:38:32;;;;;;;37.08;13.02;;;;;;;-2.58;100.00;98220.97;4485467;31;20431;-72
2021/12/08 01:41:00;;;;;;;39.72;14.52;;;;;;;-2.55;100.00;98203.69;4485287;32;20152;-72
2021/12/08 01:43:29;;;;;;;36.13;14.55;;;;;;;-2.63;100.00;98204.97;4485421;31;20100;-72
2021/12/08 01:46:01;;;;;;;39.17;13.27;;;;;;;-2.70;100.00;98205.22;4485301;31;20147;-71
2021/12/08 01:48:32;;;;;;;31.50;12.45;;;;;;;-2.79;100.00;98208.19;4485545;32;20500;-71
2021/12/08 01:51:03;;;;;;;29.58;12.77;;;;;;;-2.82;100.00;98197.25;4485055;31;20442;-72
2021/12/08 01:53:30;;;;;;;42.03;14.15;;;;;;;-2.87;100.00;98200.84;4485354;31;20438;-72
2021/12/08 01:55:59;;;;;;;35.15;12.80;;;;;;;-2.65;100.00;98192.19;4485137;31;20544;-72
2021/12/08 01:58:27;;;;;;;34.95;12.07;;;;;;;-2.74;100.00;98193.47;4485252;31;20147;-71
2021/12/08 02:01:00;;;;;;;31.33;12.88;;;;;;;-2.72;100.00;98201.91;4485059;31;20088;-71
2021/12/08 02:03:29;;;;;;;31.05;12.10;;;;;;;-2.76;100.00;98202.09;4485242;31;20153;-72
2021/12/08 02:05:57;;;;;;;37.30;13.93;;;;;;;-2.83;100.00;98190.44;4485135;31;20576;-71
2021/12/08 02:08:25;;;;;;;35.60;12.77;;;;;;;-2.82;99.02;98190.38;4485058;32;20100;-71
2021/12/08 02:10:53;;;;;;;38.55;12.27;;;;;;;-2.98;98.83;98189.38;4484844;32;20153;-71
2021/12/08 02:13:21;;;;;;;38.55;13.50;;;;;;;-3.13;100.00;98178.91;4485023;31;20116;-71
2021/12/08 02:15:48;;;;;;;33.33;12.65;;;;;;;-3.15;100.00;98167.06;4484893;32;20092;-72
2021/12/08 02:18:16;;;;;;;38.30;12.73;;;;;;;-3.08;100.00;98174.41;4485054;32;20824;-71
2021/12/08 02:20:49;;;;;;;31.65;11.73;;;;;;;-3.10;100.00;98168.53;4484810;32;20442;-71
2021/12/08 02:23:19;;;;;;;37.75;13.27;;;;;;;-2.99;100.00;98170.63;4497824;31;20091;-71
2021/12/08 02:25:47;;;;;;;29.77;12.40;;;;;;;-3.00;100.00;98166.41;4500750;31;20103;-72
2021/12/08 02:28:14;;;;;;;36.60;12.30;;;;;;;-2.90;100.00;98166.84;4496799;31;20108;-72
2021/12/08 02:30:58;;;;;;;44.90;14.25;;;;;;;-2.91;100.00;98176.25;4484827;31;20111;-71
2021/12/08 02:47:29;;;;;;;46.80;14.07;;;;;;;-2.83;100.00;98181.06;4484843;32;20079;-72
2021/12/08 02:49:58;;;;;;;30.80;12.45;;;;;;;-2.80;100.00;98187.75;4484630;31;20131;-71
2021/12/08 02:52:25;;;;;;;35.58;12.93;;;;;;;-2.80;100.00;98190.31;4484517;31;20100;-71
2021/12/08 02:54:52;;;;;;;33.50;12.90;;;;;;;-2.78;100.00;98197.03;4484487;31;20119;-71
2021/12/08 02:57:25;;;;;;;31.12;12.05;;;;;;;-2.84;100.00;98206.75;4484663;31;20130;-71
2021/12/08 02:59:52;;;;;;;38.50;13.57;;;;;;;-2.88;100.00;98198.34;4484447;31;20103;-71
2021/12/08 03:02:20;;;;;;;40.60;14.05;;;;;;;-2.89;100.00;98204.41;4484365;31;20457;-72
2021/12/08 03:04:47;;;;;;;31.20;11.32;;;;;;;-2.87;100.00;98200.03;4484677;31;20496;-72
2021/12/08 03:07:15;;;;;;;34.00;11.98;;;;;;;-2.94;100.00;98198.62;4484455;31;20096;-72
2021/12/08 03:09:42;;;;;;;39.35;13.57;;;;;;;-2.97;100.00;98199.56;4484526;32;20097;-71
2021/12/08 03:12:10;;;;;;;33.75;11.50;;;;;;;-2.87;100.00;98207.72;4484335;32;20080;-72
2021/12/08 03:14:37;;;;;;;37.42;12.68;;;;;;;-2.82;100.00;98208.31;4484342;32;20398;-72
2021/12/08 03:17:07;;;;;;;34.22;13.15;;;;;;;-2.92;100.00;98207.91;4484386;31;20728;-71
2021/12/08 03:19:34;;;;;;;36.28;12.85;;;;;;;-2.86;100.00;98196.56;4485557;32;20092;-72
2021/12/08 03:22:10;;;;;;;40.15;13.93;;;;;;;-3.04;100.00;98193.91;4491105;31;20110;-72
2021/12/08 03:24:41;;;;;;;39.05;15.15;;;;;;;-3.03;100.00;98199.84;4502119;31;20509;-72
2021/12/08 03:32:17;;;;;;;29.23;11.63;;;;;;;-2.83;100.00;98193.88;4485971;31;20144;-71
2021/12/08 03:34:52;;;;;;;35.13;13.55;;;;;;;-2.84;100.00;98189.63;4486301;31;20446;-72
2021/12/08 03:37:23;;;;;;;43.47;14.45;;;;;;;-2.85;100.00;98182.84;4486174;31;20187;-71
2021/12/08 03:39:50;;;;;;;38.10;14.80;;;;;;;-2.82;99.87;98187.81;4486186;31;20084;-71
2021/12/08 03:42:20;;;;;;;41.92;13.85;;;;;;;-2.80;100.00;98190.31;4486258;31;20140;-72
2021/12/08 03:44:49;;;;;;;34.95;15.07;;;;;;;-2.86;100.00;98191.44;4486278;31;20123;-71
2021/12/08 03:47:18;;;;;;;33.17;13.27;;;;;;;-2.84;100.00;98188.81;4486378;31;20112;-71
2021/12/08 03:49:47;;;;;;;35.53;13.15;;;;;;;-2.76;100.00;98186.72;4485877;31;20092;-71
2021/12/08 03:52:14;;;;;;;39.45;14.05;;;;;;;-2.92;100.00;98182.28;4485067;32;20472;-72
2021/12/08 03:54:41;;;;;;;35.47;12.88;;;;;;;-2.94;100.00;98178.13;4485903;31;20100;-71
2021/12/08 03:57:09;;;;;;;33.95;13.27;;;;;;;-2.94;100.00;98173.81;4486193;31;20100;-72
2021/12/08 03:59:36;;;;;;;31.87;12.20;;;;;;;-3.02;100.00;98191.25;4486136;32;20152;-72
2021/12/08 04:02:04;;;;;;;33.17;12.32;;;;;;;-3.01;100.00;98190.38;4485970;31;20085;-72
2021/12/08 04:04:40;;;;;;;33.65;12.20;;;;;;;-2.93;100.00;98184.91;4486195;31;20104;-72
2021/12/08 04:07:08;;;;;;;30.58;10.90;;;;;;;-2.97;100.00;98193.63;4486389;31;20122;-72
2021/12/08 04:09:40;;;;;;;30.58;12.45;;;;;;;-2.93;100.00;98196.00;4486044;32;20156;-72
2021/12/08 04:12:10;;;;;;;29.30;12.07;;;;;;;-2.96;100.00;98200.44;4486215;32;20187;-72
2021/12/08 04:14:46;;;;;;;35.00;12.23;;;;;;;-2.75;100.00;98184.09;4485948;31;20107;-72
2021/12/08 04:17:21;;;;;;;31.33;12.10;;;;;;;-2.82;100.00;98187.81;4486251;31;20092;-72
2021/12/08 04:19:48;;;;;;;27.13;10.77;;;;;;;-2.77;99.74;98193.59;4485896;31;20163;-72
2021/12/08 04:22:38;;;;;;;32.17;12.93;;;;;;;-2.76;99.45;98187.53;4492042;31;20168;-71
2021/12/08 04:25:09;;;;;;;29.85;11.77;;;;;;;-2.88;100.00;98185.53;4501437;31;20096;-72
2021/12/08 04:27:39;;;;;;;39.53;13.05;;;;;;;-2.97;99.95;98178.25;4501851;31;20096;-71
2021/12/08 04:30:14;;;;;;;30.23;11.68;;;;;;;-3.11;100.00;98181.41;4483649;32;20131;-72
2021/12/08 04:32:42;;;;;;;30.25;11.02;;;;;;;-3.11;100.00;98179.69;4485813;31;20106;-71
2021/12/08 04:35:10;;;;;;;30.37;11.55;;;;;;;-3.08;100.00;98178.72;4485779;31;20180;-71
2021/12/08 04:37:41;;;;;;;26.90;9.77;;;;;;;-3.00;100.00;98186.87;4485918;31;20107;-72
2021/12/08 04:43:05;;;;;;;62.95;21.95;;;;;;;-2.67;99.87;98182.00;4485804;31;20115;-72
2021/12/08 04:45:49;;;;;;;57.22;19.42;;;;;;;-2.55;98.92;98190.88;4485739;31;20084;-72
2021/12/08 04:51:16;;;;;;;35.55;13.82;;;;;;;-2.81;98.73;98192.06;4485488;31;20096;-72
2021/12/08 05:07:56;;;;;;;30.42;12.45;;;;;;;-3.36;98.92;98186.75;4451618;32;20132;-72
2021/12/08 05:10:29;;;;;;;32.05;11.70;;;;;;;-3.46;99.69;98187.13;4451575;32;20451;-72
2021/12/08 05:12:57;;;;;;;29.25;11.40;;;;;;;-3.50;99.51;98189.88;4451875;32;20141;-72
2021/12/08 05:15:33;;;;;;;36.25;12.93;;;;;;;-3.58;99.59;98197.88;4451727;32;20557;-72
2021/12/08 05:18:22;;;;;;;33.03;11.27;;;;;;;-3.45;100.00;98200.75;4451851;32;20106;-72
2021/12/08 05:21:05;;;;;;;29.05;12.02;;;;;;;-3.52;98.55;98197.63;4451708;32;20101;-72
2021/12/08 05:23:51;;;;;;;28.10;10.80;;;;;;;-3.76;99.12;98194.34;4466063;32;20575;-72
2021/12/08 05:26:28;;;;;;;27.73;12.85;;;;;;;-3.91;100.00;98190.66;4467493;32;20176;-72
2021/12/08 05:29:00;;;;;;;45.40;14.23;;;;;;;-3.88;100.00;98195.66;4455876;32;20113;-72
2021/12/08 05:31:31;;;;;;;57.38;19.45;;;;;;;-3.83;100.00;98187.81;4451602;32;20129;-72
2021/12/08 05:34:04;;;;;;;52.10;17.10;;;;;;;-3.69;100.00;98187.22;4457392;32;20139;-72
2021/12/08 05:36:32;;;;;;;53.25;17.65;;;;;;;-3.85;100.00;98179.37;4467118;32;20112;-72
2021/12/08 05:39:02;;;;;;;53.95;20.92;;;;;;;-3.88;100.00;98182.03;4467113;32;20133;-72
2021/12/08 05:41:32;;;;;;;57.95;18.60;;;;;;;-3.95;100.00;98169.50;4473767;32;20088;-72
2021/12/08 05:44:00;;;;;;;51.40;18.40;;;;;;;-4.03;100.00;98168.97;4485254;31;20071;-72
2021/12/08 05:46:29;;;;;;;42.13;16.33;;;;;;;-4.03;100.00;98175.81;4485201;31;20089;-72
2021/12/08 05:48:57;;;;;;;35.08;13.77;;;;;;;-4.01;100.00;98182.53;4485221;32;20202;-72
2021/12/08 05:51:29;;;;;;;36.40;13.82;;;;;;;-4.15;100.00;98175.41;4484990;31;20097;-72
2021/12/08 05:54:01;;;;;;;32.17;11.80;;;;;;;-4.12;100.00;98182.97;4485145;31;20148;-72
2021/12/08 05:56:29;;;;;;;28.95;11.98;;;;;;;-3.98;100.00;98186.69;4484991;31;20076;-72
2021/12/08 05:58:58;;;;;;;35.63;12.50;;;;;;;-3.90;100.00;98192.34;4484764;31;20093;-71
2021/12/08 06:01:59;;;;;;;37.50;12.63;;;;;;;-3.96;100.00;98188.28;4486716;31;20156;-72
2021/12/08 06:04:29;;;;;;;38.42;13.65;;;;;;;-3.98;100.00;98191.78;4490163;31;20551;-72
2021/12/08 06:06:56;;;;;;;36.38;14.45;;;;;;;-4.12;100.00;98188.09;4494968;31;20100;-71
2021/12/08 06:09:25;;;;;;;33.80;12.70;;;;;;;-4.29;100.00;98187.87;4486554;31;20127;-72
2021/12/08 06:11:54;;;;;;;46.50;17.40;;;;;;;-4.28;100.00;98198.06;4492184;31;20390;-72
2021/12/08 06:14:25;;;;;;;44.70;17.05;;;;;;;-4.43;100.00;98193.53;4484814;31;20095;-72
2021/12/08 06:16:53;;;;;;;50.33;18.00;;;;;;;-4.52;100.00;98199.81;4496325;31;20084;-71
2021/12/08 06:19:20;;;;;;;53.40;19.27;;;;;;;-4.51;100.00;98196.38;4491014;31;20126;-72
2021/12/08 06:21:48;;;;;;;56.13;19.35;;;;;;;-4.54;100.00;98193.94;4486923;31;20096;-71
2021/12/08 06:24:17;;;;;;;54.78;20.75;;;;;;;-4.55;100.00;98194.81;4489396;31;20126;-72
2021/12/08 06:26:46;;;;;;;49.80;20.08;;;;;;;-4.57;100.00;98191.50;4481828;31;20081;-72
2021/12/08 06:29:15;;;;;;;50.45;17.70;;;;;;;-4.47;100.00;98184.31;4488966;31;20139;-72
2021/12/08 06:31:43;;;;;;;42.22;17.95;;;;;;;-4.43;100.00;98193.53;4487729;31;20161;-72
2021/12/08 06:34:10;;;;;;;45.28;18.02;;;;;;;-4.52;100.00;98197.25;4488774;31;20088;-72
2021/12/08 06:36:43;;;;;;;52.05;18.80;;;;;;;-4.52;100.00;98204.94;4486031;31;20142;-72
2021/12/08 06:39:18;;;;;;;46.35;17.58;;;;;;;-4.60;100.00;98206.94;4490566;31;20092;-73
2021/12/08 06:41:52;;;;;;;45.45;17.48;;;;;;;-4.66;100.00;98199.50;4489666;31;20151;-74
2021/12/08 06:44:24;;;;;;;50.63;20.65;;;;;;;-4.61;100.00;98195.06;4482285;32;20092;-74
2021/12/08 06:46:53;;;;;;;53.55;18.42;;;;;;;-4.58;100.00;98197.50;4483539;31;20111;-74
2021/12/08 06:49:28;;;;;;;42.80;16.15;;;;;;;-4.49;100.00;98199.69;4484103;32;20085;-74
2021/12/08 06:52:06;;;;;;;41.42;16.48;;;;;;;-4.30;100.00;98201.56;4483206;31;20137;-73
2021/12/08 06:54:39;;;;;;;48.08;17.60;;;;;;;-4.09;100.00;98192.22;4484000;31;20818;-74
2021/12/08 06:57:20;;;;;;;40.47;16.37;;;;;;;-3.98;100.00;98204.59;4490974;31;20423;-73
2021/12/08 07:00:05;;;;;;;49.40;17.73;;;;;;;-3.87;100.00;98202.44;4490308;31;20096;-73
2021/12/08 07:03:02;;;;;;;53.47;19.20;;;;;;;-3.77;100.00;98203.75;4491578;31;20084;-75
2021/12/08 07:05:30;;;;;;;45.30;18.62;;;;;;;-3.64;100.00;98198.12;4485786;31;20088;-73
2021/12/08 07:08:07;;;;;;;45.33;16.90;;;;;;;-3.51;100.00;98185.66;4483931;31;20112;-73
2021/12/08 07:10:41;;;;;;;37.15;17.00;;;;;;;-3.30;100.00;98186.47;4482215;32;20145;-73
2021/12/08 07:13:13;;;;;;;41.70;16.62;;;;;;;-3.20;100.00;98190.31;4482506;31;20146;-73
2021/12/08 07:15:41;;;;;;;45.83;16.10;;;;;;;-3.01;100.00;98189.53;4493840;31;20150;-73
2021/12/08 07:18:14;;;;;;;44.17;15.73;;;;;;;-2.93;100.00;98190.84;4485409;31;20153;-73
2021/12/08 07:20:51;;;;;;;49.87;18.93;;;;;;;-2.84;100.00;98181.94;4483148;31;20523;-73
2021/12/08 07:23:36;;;;;;;43.35;17.42;;;;;;;-2.71;100.00;98180.50;4494675;31;20182;-74
2021/12/08 07:26:10;;;;;;;44.75;16.95;;;;;;;-2.50;100.00;98188.09;4492818;31;20160;-74
2021/12/08 07:28:40;;;;;;;39.03;16.27;;;;;;;-2.40;100.00;98185.97;4497047;31;20151;-72
2021/12/08 07:31:12;;;;;;;50.88;18.17;;;;;;;-2.23;99.74;98191.12;4486877;31;20097;-73
2021/12/08 07:33:40;;;;;;;48.05;17.75;;;;;;;-2.23;99.30;98190.31;4487648;31;20122;-73
2021/12/08 07:36:11;;;;;;;45.15;17.83;;;;;;;-2.22;99.62;98199.69;4485919;31;20105;-73
2021/12/08 07:38:39;;;;;;;40.55;17.62;;;;;;;-1.99;98.89;98198.59;4496371;31;20162;-73
2021/12/08 07:41:15;;;;;;;44.90;16.52;;;;;;;-1.87;98.26;98192.88;4483662;31;20147;-73
2021/12/08 07:43:49;;;;;;;45.22;17.08;;;;;;;-1.75;97.94;98201.72;4494047;31;20096;-73
2021/12/08 07:46:24;;;;;;;;;;;;;;;-1.71;97.30;98198.12;4494042;31;20110;-73
2021/12/08 07:49:03;;;;;;;31.27;14.30;;;;;;;-1.49;96.45;98200.44;4489714;31;19994;-75
2021/12/08 07:51:35;;;;;;;39.97;15.88;;;;;;;-1.30;95.77;98191.84;4491988;31;20122;-75
2021/12/08 07:54:04;;;;;;;38.55;15.75;;;;;;;-1.21;95.24;98203.38;4495869;31;20084;-75
2021/12/08 07:56:34;;;;;;;36.10;14.93;;;;;;;-1.04;94.23;98213.66;4497181;31;20434;-73
2021/12/08 07:59:04;;;;;;;35.28;14.00;;;;;;;-0.84;93.31;98204.09;4486290;31;20119;-72
2021/12/08 08:01:40;;;;;;;38.92;15.27;;;;;;;-0.76;92.68;98202.78;4491537;31;20096;-74
2021/12/08 08:04:10;;;;;;;42.75;15.68;;;;;;;-0.66;92.48;98203.13;4481873;31;20450;-73
2021/12/08 08:06:53;;;;;;;39.85;15.88;;;;;;;-0.69;92.90;98205.84;4494083;31;20096;-74
2021/12/08 08:09:23;;;;;;;40.75;15.48;;;;;;;-0.56;92.83;98209.44;4490559;31;20088;-75
2021/12/08 08:11:56;;;;;;;34.85;16.00;;;;;;;-0.36;91.91;98204.97;4489026;31;20603;-73
2021/12/08 08:14:38;;;;;;;38.20;14.98;;;;;;;-0.31;92.70;98208.13;4489100;31;20100;-73
2021/12/08 08:17:11;;;;;;;42.20;15.82;;;;;;;-0.20;92.08;98208.38;4487897;31;20110;-74
2021/12/08 08:19:44;;;;;;;43.13;16.45;;;;;;;-0.30;92.53;98207.22;4491737;31;20103;-73
2021/12/08 08:22:20;;;;;;;46.05;17.30;;;;;;;-0.31;92.50;98213.28;4498396;31;20144;-73
2021/12/08 08:24:48;;;;;;;37.83;15.85;;;;;;;-0.10;91.85;98213.03;4495940;31;20161;-74
2021/12/08 08:27:20;;;;;;;37.80;16.33;;;;;;;-0.04;91.39;98217.84;4493855;31;20080;-73
2021/12/08 08:29:48;;;;;;;43.97;18.33;;;;;;;0.00;91.35;98216.78;4493069;31;20435;-72
2021/12/08 08:32:24;;;;;;;45.05;17.55;;;;;;;0.02;90.88;98214.09;4490667;31;20104;-73
2021/12/08 08:34:56;;;;;;;37.80;15.60;;;;;;;0.13;90.76;98222.88;4493114;31;20124;-72
2021/12/08 08:37:23;;;;;;;47.00;16.67;;;;;;;0.17;89.97;98219.22;4493879;31;20084;-73
2021/12/08 08:39:54;;;;;;;40.78;17.15;;;;;;;0.31;90.04;98225.34;4492432;31;20171;-73
2021/12/08 08:42:29;;;;;;;51.22;18.50;;;;;;;0.36;89.75;98228.50;4493606;31;20104;-72
2021/12/08 08:45:03;;;;;;;45.83;17.20;;;;;;;0.38;89.73;98225.81;4493232;31;20144;-73
2021/12/08 08:47:41;;;;;;;44.88;19.25;;;;;;;0.44;89.33;98225.47;4494293;31;20104;-74
2021/12/08 08:50:14;;;;;;;45.75;18.62;;;;;;;0.48;89.25;98216.66;4491345;31;20168;-76
2021/12/08 08:52:48;;;;;;;50.53;19.03;;;;;;;0.41;90.01;98223.94;4488046;31;20164;-75
2021/12/08 08:55:53;;;;;;;42.10;19.23;;;;;;;0.56;88.86;98218.81;4491884;31;20152;-74
2021/12/08 08:58:22;;;;;;;51.63;18.73;;;;;;;0.49;89.78;98218.34;4491352;31;20130;-74
2021/12/08 09:01:13;;;;;;;46.60;17.60;;;;;;;0.55;89.51;98220.56;4485445;31;20100;-77
2021/12/08 09:03:47;;;;;;;51.47;19.83;;;;;;;0.70;87.46;98211.94;4485529;31;20756;-75
2021/12/08 09:06:21;;;;;;;55.75;21.52;;;;;;;0.74;88.08;98207.41;4488361;31;20100;-72
2021/12/08 09:08:48;;;;;;;53.55;20.73;;;;;;;0.82;87.97;98205.25;4487757;31;20227;-75
2021/12/08 09:11:23;;;;;;;60.47;24.23;;;;;;;0.80;88.56;98201.94;4487968;31;20214;-73
2021/12/08 09:13:54;;;;;;;65.82;24.48;;;;;;;0.69;88.17;98210.28;4489851;31;20155;-72
2021/12/08 09:16:32;;;;;;;63.53;26.20;;;;;;;0.66;87.73;98205.28;4492795;31;20114;-73
2021/12/08 09:19:11;;;;;;;57.25;23.10;;;;;;;0.72;88.65;98204.13;4496363;31;20155;-72
2021/12/08 09:21:55;;;;;;;62.10;25.33;;;;;;;0.71;88.98;98207.59;4485237;31;20123;-72
2021/12/08 09:24:51;;;;;;;52.28;23.30;;;;;;;0.76;89.04;98215.91;4495831;31;20096;-73
2021/12/08 09:27:26;;;;;;;64.45;25.25;;;;;;;0.93;88.49;98214.94;4485786;31;20176;-73
2021/12/08 09:29:58;;;;;;;60.03;25.25;;;;;;;0.71;89.00;98212.75;4486451;31;20088;-72
2021/12/08 09:32:37;;;;;;;52.92;22.62;;;;;;;0.91;88.93;98203.03;4484966;31;20449;-73
2021/12/08 09:35:13;;;;;;;51.10;23.00;;;;;;;1.04;87.47;98194.47;4484416;31;20145;-72
2021/12/08 09:37:46;;;;;;;64.10;25.17;;;;;;;1.08;88.24;98195.13;4484140;31;20594;-73
2021/12/08 09:40:26;;;;;;;55.30;23.62;;;;;;;1.11;87.05;98182.06;4484035;32;20087;-73
2021/12/08 09:42:57;;;;;;;49.30;21.00;;;;;;;1.19;87.01;98190.16;4484266;31;20137;-72
2021/12/08 09:45:32;;;;;;;49.78;20.65;;;;;;;1.17;86.66;98183.44;4484018;32;20104;-71
2021/12/08 09:48:04;;;;;;;55.40;22.20;;;;;;;1.23;86.21;98177.91;4492313;31;20096;-74
2021/12/08 09:50:33;;;;;;;58.17;23.70;;;;;;;1.38;85.29;98174.38;4488830;31;20149;-74
2021/12/08 09:53:00;;;;;;;52.85;22.83;;;;;;;1.34;86.70;98170.34;4496119;31;20096;-73
2021/12/08 09:55:27;;;;;;;55.00;22.73;;;;;;;1.42;85.87;98175.03;4487234;31;20167;-73
2021/12/08 09:57:55;;;;;;;56.80;22.77;;;;;;;1.24;86.03;98169.22;4488492;31;20134;-73
2021/12/08 10:00:29;;;;;;;51.35;21.98;;;;;;;1.17;86.12;98171.37;4490397;31;20136;-72
2021/12/08 10:02:59;;;;;;;54.13;21.77;;;;;;;1.33;87.03;98173.84;4490362;31;20080;-73
2021/12/08 10:05:29;;;;;;;53.87;20.75;;;;;;;1.51;87.35;98177.03;4490204;31;20088;-74
2021/12/08 10:07:57;;;;;;;50.10;20.95;;;;;;;1.57;84.85;98162.94;4486169;31;20100;-74
2021/12/08 10:10:26;;;;;;;57.20;22.58;;;;;;;1.43;84.96;98161.19;4485567;31;20132;-73
2021/12/08 10:12:53;;;;;;;50.70;21.67;;;;;;;1.50;83.63;98165.06;4488677;31;20208;-72
2021/12/08 10:15:21;;;;;;;51.03;22.42;;;;;;;1.43;83.46;98153.47;4482878;31;20092;-72
2021/12/08 10:17:52;;;;;;;59.45;20.90;;;;;;;1.02;86.22;98155.06;4484358;31;20087;-71
2021/12/08 10:20:32;;;;;;;50.95;20.02;;;;;;;0.76;86.91;98154.03;4483336;31;20096;-71
2021/12/08 10:23:30;;;;;;;50.97;21.08;;;;;;;1.08;88.09;98143.53;4483554;31;20167;-72
2021/12/08 10:26:06;;;;;;;51.53;22.02;;;;;;;0.92;87.34;98147.97;4486521;31;20674;-73
2021/12/08 10:28:45;;;;;;;54.30;19.98;;;;;;;0.64;89.67;98140.13;4487965;31;20100;-72
2021/12/08 10:31:16;;;;;;;48.78;21.02;;;;;;;1.10;87.10;98131.38;4490191;31;20114;-73
2021/12/08 10:37:00;;;;;;;57.40;21.65;;;;;;;1.16;86.51;98125.84;4492714;31;20153;-72
2021/12/08 10:39:34;;;;;;;54.88;21.00;;;;;;;1.22;85.69;98124.66;4436036;32;20184;-73
2021/12/08 10:42:23;;;;;;;54.60;21.87;;;;;;;1.14;86.83;98121.72;4437122;32;20101;-73
2021/12/08 10:45:09;;;;;;;48.97;22.30;;;;;;;1.27;86.36;98114.84;4437223;32;20159;-73
2021/12/08 10:47:36;;;;;;;55.05;23.42;;;;;;;1.42;86.32;98110.50;4443221;32;20311;-74
2021/12/08 10:55:35;;;;;;;50.75;20.10;;;;;;;1.56;83.79;98113.06;4438828;32;20093;-73
2021/12/08 10:58:03;;;;;;;47.08;19.87;;;;;;;1.30;84.91;98101.75;4439676;32;20140;-74
2021/12/08 11:00:35;;;;;;;51.65;20.98;;;;;;;1.35;84.88;98094.59;4440831;32;20097;-73
2021/12/08 11:03:08;;;;;;;51.47;20.62;;;;;;;1.38;84.41;98089.22;4435111;32;20194;-75
2021/12/08 11:05:44;;;;;;;48.10;20.25;;;;;;;1.26;85.10;98096.88;4437929;32;20787;-77
2021/12/08 11:08:36;;;;;;;60.88;23.05;;;;;;;1.33;83.88;98086.13;4436673;32;20141;-74
2021/12/08 11:11:14;;;;;;;57.20;23.80;;;;;;;1.38;85.07;98085.81;4442162;32;20105;-75
2021/12/08 11:13:44;;;;;;;61.83;23.15;;;;;;;1.17;85.78;98088.81;4440317;32;20136;-74
2021/12/08 11:16:18;;;;;;;68.12;24.05;;;;;;;1.31;86.43;98097.44;4463193;31;20717;-74
2021/12/08 11:18:48;;;;;;;62.13;22.17;;;;;;;1.31;85.88;98090.53;4488705;31;20111;-73
2021/12/08 11:21:29;;;;;;;57.58;23.05;;;;;;;1.38;84.85;98093.56;4489367;31;20088;-73
2021/12/08 11:24:19;;;;;;;60.67;23.75;;;;;;;1.26;84.92;98078.81;4489985;31;20110;-72
2021/12/08 11:26:48;;;;;;;51.30;21.60;;;;;;;1.37;85.84;98079.00;4485663;31;20087;-73
2021/12/08 11:29:20;;;;;;;60.25;22.83;;;;;;;1.31;84.92;98074.22;4482016;31;20180;-72
2021/12/08 11:31:54;;;;;;;58.97;22.13;;;;;;;1.24;86.57;98082.34;4496171;31;20569;-72
2021/12/08 11:34:24;;;;;;;55.78;20.88;;;;;;;1.19;85.88;98076.62;4497805;31;20099;-71
2021/12/08 11:37:02;;;;;;;50.60;20.42;;;;;;;1.16;85.67;98071.66;4488546;31;20164;-71
2021/12/08 11:39:31;;;;;;;48.95;19.87;;;;;;;1.21;86.35;98069.66;4489488;31;20420;-71
2021/12/08 11:42:12;;;;;;;56.40;23.02;;;;;;;1.40;85.11;98065.91;4483089;31;20127;-71
2021/12/08 11:44:45;;;;;;;54.47;20.92;;;;;;;1.33;85.83;98069.78;4483756;31;20495;-71
2021/12/08 11:47:15;;;;;;;48.92;19.30;;;;;;;1.20;86.56;98070.56;4483767;31;20727;-72
2021/12/08 11:49:51;;;;;;;53.90;21.40;;;;;;;1.32;86.12;98068.16;4482980;31;20127;-72
2021/12/08 11:52:29;;;;;;;47.08;18.75;;;;;;;1.45;85.68;98073.34;4488191;31;20119;-72
2021/12/08 11:55:17;;;;;;;45.60;17.85;;;;;;;1.48;84.07;98068.00;4493057;31;20569;-71
2021/12/08 11:57:48;;;;;;;54.75;20.73;;;;;;;1.37;84.71;98061.75;4488569;31;20107;-72
2021/12/08 12:00:22;;;;;;;45.95;19.10;;;;;;;1.28;85.06;98066.69;4481605;32;20135;-72
2021/12/08 12:02:55;;;;;;;45.70;18.83;;;;;;;1.48;85.15;98073.97;4482140;32;20183;-72
2021/12/08 12:05:33;;;;;;;50.78;20.20;;;;;;;1.34;84.50;98061.94;4491960;31;20157;-71
2021/12/08 12:08:02;;;;;;;45.83;17.55;;;;;;;1.41;83.94;98057.25;4483648;31;20112;-71
2021/12/08 12:10:32;;;;;;;51.83;20.23;;;;;;;1.34;83.41;98053.38;4483770;31;20097;-71
2021/12/08 12:13:03;;;;;;;51.13;18.77;;;;;;;1.32;82.95;98055.25;4489472;31;20175;-72
2021/12/08 12:15:30;;;;;;;41.08;18.30;;;;;;;1.36;83.12;98048.94;4488242;31;20119;-71
2021/12/08 12:17:57;;;;;;;45.92;19.17;;;;;;;1.27;82.75;98045.19;4482725;31;20121;-72
2021/12/08 12:20:39;;;;;;;52.85;18.25;;;;;;;1.47;83.37;98046.53;4485040;31;20173;-71
2021/12/08 12:23:57;;;;;;;45.88;18.95;;;;;;;1.37;83.33;98040.28;4481713;32;20104;-71
2021/12/08 12:27:02;;;;;;;49.58;17.58;;;;;;;1.31;83.86;98045.84;4449411;32;20097;-71
2021/12/08 12:29:56;;;;;;;53.97;20.17;;;;;;;1.50;82.14;98037.75;4449151;32;20121;-71
2021/12/08 12:32:32;;;;;;;46.13;18.50;;;;;;;1.70;82.80;98042.47;4449315;32;20101;-70